Time;durP1;ratioP1;P1;durP2;ratioP2;P2;SDS_P1;SDS_P2;PMS_P1;PMS_P2;Temp;Humidity;BMP_temperature;BMP_pressure;BME280_temperature;BME280_humidity;BME280_pressure;Samples;Min_cycle;Max_cycle;Signal;HPM_P1;HPM_P2
2022/07/06 00:02:22;;;;;;;8.17;2.17;;;;;;;18.33;100.00;102389.66;5074481;28;20278;-53
2022/07/06 00:04:50;;;;;;;;;;;;;;;18.54;100.00;102393.19;5079199;28;20037;-50
2022/07/06 00:07:15;;;;;;;6.97;2.13;;;;;;;18.43;100.00;102400.06;5079528;28;19913;-48
2022/07/06 00:09:41;;;;;;;5.87;1.97;;;;;;;18.45;100.00;102392.59;5076917;28;20361;-51
2022/07/06 00:12:07;;;;;;;6.93;1.80;;;;;;;18.63;100.00;102391.94;5082925;28;20092;-49
2022/07/06 00:14:33;;;;;;;6.40;1.97;;;;;;;18.44;100.00;102388.19;5077255;28;20063;-52
2022/07/06 00:16:59;;;;;;;7.43;2.33;;;;;;;18.20;100.00;102389.69;5076642;28;20270;-53
2022/07/06 00:19:24;;;;;;;5.45;2.50;;;;;;;18.13;100.00;102402.41;5075458;28;20279;-48
2022/07/06 00:21:50;;;;;;;7.35;2.13;;;;;;;18.26;100.00;102394.25;5084635;28;20104;-51
2022/07/06 00:24:17;;;;;;;5.63;1.70;;;;;;;17.98;100.00;102394.44;5078899;28;20041;-51
2022/07/06 00:26:44;;;;;;;7.47;2.00;;;;;;;18.07;100.00;102398.66;5078669;28;20036;-48
2022/07/06 00:29:10;;;;;;;3.70;2.00;;;;;;;18.01;100.00;102396.75;5074244;28;20270;-53
2022/07/06 00:31:36;;;;;;;7.97;2.00;;;;;;;18.00;100.00;102395.91;5079843;28;20013;-49
2022/07/06 00:34:01;;;;;;;3.00;1.70;;;;;;;17.78;100.00;102400.69;5074645;28;20048;-49
2022/07/06 00:36:27;;;;;;;9.60;2.43;;;;;;;17.90;100.00;102393.59;5083596;28;20204;-50
2022/07/06 00:38:53;;;;;;;5.88;2.00;;;;;;;17.94;100.00;102382.34;5082395;28;20285;-48
2022/07/06 00:41:19;;;;;;;5.40;1.70;;;;;;;18.10;100.00;102389.25;5079306;28;20039;-48
2022/07/06 00:43:52;;;;;;;5.40;1.53;;;;;;;18.01;100.00;102388.63;5076454;28;20029;-49
2022/07/06 00:46:18;;;;;;;5.53;2.00;;;;;;;17.73;100.00;102390.47;5083484;28;20265;-52
2022/07/06 00:48:44;;;;;;;4.60;2.10;;;;;;;17.82;100.00;102388.41;5076878;28;20261;-50
2022/07/06 00:51:12;;;;;;;7.32;2.08;;;;;;;17.91;100.00;102384.44;5078648;28;20059;-51
2022/07/06 00:53:38;;;;;;;5.87;2.03;;;;;;;17.54;100.00;102392.09;5076694;28;20043;-49
2022/07/06 00:56:04;;;;;;;8.23;2.20;;;;;;;17.64;100.00;102388.97;5076995;28;20293;-51
2022/07/06 00:58:29;;;;;;;6.72;1.63;;;;;;;17.62;100.00;102391.91;5078666;28;20297;-51
2022/07/06 01:00:55;;;;;;;3.13;1.60;;;;;;;17.98;100.00;102389.88;5081328;28;20048;-48
2022/07/06 01:03:21;;;;;;;6.43;1.88;;;;;;;17.77;100.00;102382.78;5078127;28;20036;-54
2022/07/06 01:05:46;;;;;;;4.13;1.70;;;;;;;17.81;100.00;102389.44;5076324;28;23941;-53
2022/07/06 01:08:12;;;;;;;5.00;1.80;;;;;;;17.98;100.00;102387.16;5073303;28;20048;-52
2022/07/06 01:10:38;;;;;;;7.85;1.70;;;;;;;17.79;100.00;102391.53;5078121;28;20028;-48
2022/07/06 01:13:04;;;;;;;6.47;2.42;;;;;;;17.95;100.00;102395.69;5076365;28;20036;-50
2022/07/06 01:15:29;;;;;;;5.05;1.85;;;;;;;17.64;100.00;102391.69;5082952;28;20028;-50
2022/07/06 01:17:55;;;;;;;4.43;2.47;;;;;;;17.56;100.00;102398.13;5077283;28;20044;-47
2022/07/06 01:20:28;;;;;;;5.93;2.13;;;;;;;17.55;100.00;102392.91;5074377;28;20101;-48
2022/07/06 01:22:56;;;;;;;5.17;1.63;;;;;;;17.21;100.00;102395.50;5073289;28;20276;-50
2022/07/06 01:25:22;;;;;;;8.87;2.43;;;;;;;17.74;100.00;102383.16;5076049;28;20274;-50
2022/07/06 01:27:48;;;;;;;4.95;2.28;;;;;;;17.86;100.00;102391.50;5077197;28;20298;-48
2022/07/06 01:30:16;;;;;;;6.45;1.90;;;;;;;17.70;100.00;102387.31;5075964;28;20049;-47
2022/07/06 01:32:43;;;;;;;9.40;2.40;;;;;;;17.65;100.00;102392.53;5075471;28;20040;-50
2022/07/06 01:35:11;;;;;;;5.07;1.90;;;;;;;17.63;100.00;102393.56;5077339;28;20262;-50
2022/07/06 01:37:37;;;;;;;4.27;1.87;;;;;;;17.52;100.00;102396.84;5073654;28;20123;-51
2022/07/06 01:40:05;;;;;;;5.90;2.42;;;;;;;17.67;100.00;102398.56;5073236;28;20282;-48
2022/07/06 01:42:31;;;;;;;4.33;2.47;;;;;;;17.72;100.00;102385.25;5079740;28;20032;-47
2022/07/06 01:44:56;;;;;;;9.57;2.40;;;;;;;17.25;100.00;102391.38;5076947;28;20270;-51
2022/07/06 01:47:22;;;;;;;8.07;2.03;;;;;;;17.32;100.00;102389.53;5075568;28;20028;-50
2022/07/06 01:49:50;;;;;;;6.13;2.13;;;;;;;17.44;100.00;102391.66;5080062;28;20293;-48
2022/07/06 01:52:15;;;;;;;8.75;2.78;;;;;;;17.44;100.00;102384.38;5073729;28;20316;-49
2022/07/06 01:54:41;;;;;;;6.20;2.00;;;;;;;17.31;100.00;102387.03;5075970;28;20039;-51
2022/07/06 01:57:07;;;;;;;;;;;;;;;17.32;100.00;102386.00;5077431;28;20048;-48
2022/07/06 01:59:33;;;;;;;8.67;2.20;;;;;;;17.26;100.00;102387.63;5075569;28;19916;-50
2022/07/06 02:01:58;;;;;;;6.83;1.90;;;;;;;17.25;100.00;102383.25;5080435;28;20061;-48
2022/07/06 02:04:24;;;;;;;5.85;2.35;;;;;;;17.20;100.00;102385.75;5077967;28;20052;-48
2022/07/06 02:06:50;;;;;;;5.60;2.13;;;;;;;17.20;100.00;102385.75;5077538;28;20093;-50
2022/07/06 02:09:16;;;;;;;5.90;2.57;;;;;;;17.30;100.00;102386.22;5079262;28;20029;-47
2022/07/06 02:11:42;;;;;;;3.33;1.93;;;;;;;17.41;100.00;102387.47;5077357;28;20036;-51
2022/07/06 02:14:08;;;;;;;7.03;2.03;;;;;;;17.26;100.00;102390.31;5077017;28;20270;-50
2022/07/06 02:16:37;;;;;;;8.07;2.57;;;;;;;17.70;100.00;102379.22;5073902;28;20052;-48
2022/07/06 02:19:02;;;;;;;6.55;1.92;;;;;;;17.61;100.00;102386.69;5085420;28;20288;-45
2022/07/06 02:21:28;;;;;;;6.15;2.08;;;;;;;17.92;100.00;102388.81;5079807;28;20040;-53
2022/07/06 02:23:54;;;;;;;6.78;2.90;;;;;;;18.04;100.00;102396.38;5077597;28;20066;-54
2022/07/06 02:26:20;;;;;;;6.70;2.45;;;;;;;18.04;100.00;102393.66;5079037;28;20039;-50
2022/07/06 02:28:47;;;;;;;5.10;1.63;;;;;;;17.87;100.00;102394.03;5078352;28;20025;-49
2022/07/06 02:31:13;;;;;;;5.70;1.90;;;;;;;18.05;100.00;102389.91;5079441;28;20068;-47
2022/07/06 02:33:40;;;;;;;4.83;2.10;;;;;;;18.03;100.00;102397.41;5079293;28;20284;-46
2022/07/06 02:36:07;;;;;;;4.77;1.90;;;;;;;17.99;100.00;102390.69;5076072;28;20292;-47
2022/07/06 02:38:33;;;;;;;6.30;2.40;;;;;;;17.99;100.00;102402.34;5078165;28;20270;-46
2022/07/06 02:40:59;;;;;;;7.57;1.77;;;;;;;17.80;100.00;102393.19;5078132;28;20084;-46
2022/07/06 02:43:26;;;;;;;5.37;2.00;;;;;;;17.86;100.00;102391.50;5081571;28;20297;-51
2022/07/06 02:45:51;;;;;;;5.72;2.10;;;;;;;18.09;100.00;102384.88;5075442;28;20304;-50
2022/07/06 02:48:19;;;;;;;6.30;2.00;;;;;;;17.83;100.00;102387.38;5076942;28;20032;-48
2022/07/06 02:50:45;;;;;;;9.27;1.60;;;;;;;17.89;100.00;102389.22;5079693;28;20039;-49
2022/07/06 02:53:11;;;;;;;7.47;1.90;;;;;;;18.09;100.00;102388.44;5077595;28;20273;-46
2022/07/06 02:55:37;;;;;;;7.63;2.08;;;;;;;18.02;100.00;102395.75;5081657;28;20043;-47
2022/07/06 02:58:05;;;;;;;7.43;2.27;;;;;;;18.04;100.00;102389.06;5081448;28;20035;-50
2022/07/06 03:00:31;;;;;;;5.32;1.60;;;;;;;17.80;100.00;102398.59;5073584;28;20266;-48
2022/07/06 03:02:57;;;;;;;9.35;2.05;;;;;;;17.95;100.00;102389.44;5077937;28;20063;-50
2022/07/06 03:05:22;;;;;;;7.05;1.98;;;;;;;17.85;100.00;102390.69;5076354;28;20040;-49
2022/07/06 03:07:48;;;;;;;3.70;1.63;;;;;;;17.85;100.00;102393.41;5076973;28;20037;-47
2022/07/06 03:10:15;;;;;;;9.30;2.27;;;;;;;17.82;100.00;102396.53;5076917;28;20031;-50
2022/07/06 03:12:41;;;;;;;7.18;1.80;;;;;;;17.92;100.00;102396.13;5078907;28;20266;-48
2022/07/06 03:15:09;;;;;;;7.23;2.87;;;;;;;18.03;100.00;102406.34;5079111;28;20085;-51
2022/07/06 03:17:37;;;;;;;3.93;1.57;;;;;;;18.10;100.00;102402.78;5078208;28;20115;-47
2022/07/06 03:20:05;;;;;;;5.40;1.70;;;;;;;18.26;100.00;102407.00;5073325;28;20274;-49
2022/07/06 03:22:31;;;;;;;;;;;;;;;18.03;100.00;102409.06;5081787;28;20298;-48
2022/07/06 03:24:57;;;;;;;2.88;1.95;;;;;;;17.91;100.00;102402.56;5078852;28;19912;-47
2022/07/06 03:27:23;;;;;;;6.95;1.88;;;;;;;17.87;100.00;102402.13;5078463;28;20059;-49
2022/07/06 03:29:48;;;;;;;7.15;1.88;;;;;;;18.20;100.00;102404.03;5078800;28;20036;-48
2022/07/06 03:32:15;;;;;;;4.22;1.58;;;;;;;17.99;100.00;102401.50;5081902;28;20039;-52
2022/07/06 03:34:41;;;;;;;;;;;;;;;18.15;100.00;102403.84;5081966;28;20041;-48
2022/07/06 03:37:08;;;;;;;3.30;1.50;;;;;;;18.23;100.00;102404.69;5076072;28;19916;-50
2022/07/06 03:39:36;;;;;;;3.50;1.47;;;;;;;18.59;100.00;102401.53;5071620;28;20285;-46
2022/07/06 03:42:02;;;;;;;2.60;1.23;;;;;;;18.65;100.00;102407.97;5074492;28;20324;-50
2022/07/06 03:44:30;;;;;;;5.10;1.70;;;;;;;18.78;100.00;102410.66;5078534;28;20043;-46
2022/07/06 03:46:55;;;;;;;5.50;1.90;;;;;;;18.62;100.00;102411.09;5082993;28;20297;-47
2022/07/06 03:49:26;;;;;;;4.10;1.33;;;;;;;18.14;100.00;102421.13;5085967;28;20087;-47
2022/07/06 03:51:52;;;;;;;5.80;1.70;;;;;;;18.17;100.00;102415.31;5072851;28;20272;-48
2022/07/06 03:54:18;;;;;;;4.68;1.40;;;;;;;18.15;100.00;102411.97;5081531;28;20296;-48
2022/07/06 03:56:45;;;;;;;7.23;1.90;;;;;;;18.20;100.00;102404.03;5078570;28;20028;-52
2022/07/06 03:59:14;;;;;;;3.77;1.77;;;;;;;18.28;100.00;102402.19;5079527;28;20266;-48
2022/07/06 04:01:39;;;;;;;5.72;2.28;;;;;;;18.28;100.00;102402.19;5077608;28;20301;-51
2022/07/06 04:04:05;;;;;;;4.40;1.60;;;;;;;18.12;100.00;102396.16;5075109;28;20067;-48
2022/07/06 04:06:34;;;;;;;7.00;2.70;;;;;;;17.72;100.00;102404.19;5079167;28;20024;-50
2022/07/06 04:09:01;;;;;;;6.33;2.00;;;;;;;18.04;100.00;102399.06;5078270;28;20326;-48
2022/07/06 04:11:27;;;;;;;7.07;1.52;;;;;;;17.81;100.00;102397.56;5072261;28;20266;-52
2022/07/06 04:13:54;;;;;;;7.60;1.70;;;;;;;17.99;100.00;102396.94;5077647;28;20104;-52
2022/07/06 04:16:21;;;;;;;6.00;2.33;;;;;;;17.99;100.00;102398.81;5082806;28;20024;-49
2022/07/06 04:18:46;;;;;;;4.27;1.57;;;;;;;18.05;100.00;102400.72;5080827;28;20285;-50
2022/07/06 04:21:12;;;;;;;3.90;1.60;;;;;;;17.71;100.00;102403.38;5078717;28;20048;-47
2022/07/06 04:23:38;;;;;;;4.82;1.55;;;;;;;17.96;100.00;102401.94;5077999;28;20052;-46
2022/07/06 04:26:05;;;;;;;5.97;1.83;;;;;;;17.89;100.00;102397.34;5072214;28;20034;-46
2022/07/06 04:28:33;;;;;;;5.43;1.73;;;;;;;18.18;100.00;102400.72;5072256;28;20274;-50
2022/07/06 04:30:59;;;;;;;5.55;1.80;;;;;;;18.42;100.00;102397.59;5076108;28;20273;-48
2022/07/06 04:33:25;;;;;;;7.37;2.80;;;;;;;18.15;100.00;102395.72;5079712;28;20029;-51
2022/07/06 04:35:50;;;;;;;5.00;2.05;;;;;;;18.34;100.00;102401.34;5077788;28;20092;-48
2022/07/06 04:38:18;;;;;;;5.77;1.57;;;;;;;18.46;100.00;102396.97;5079557;28;20033;-50
2022/07/06 04:40:46;;;;;;;6.03;2.00;;;;;;;18.19;100.00;102394.25;5076004;28;20307;-48
2022/07/06 04:43:14;;;;;;;2.80;1.67;;;;;;;18.52;100.00;102389.84;5073821;28;20316;-53
2022/07/06 04:45:43;;;;;;;6.43;1.97;;;;;;;18.49;100.00;102393.84;5073988;28;20292;-49
2022/07/06 04:48:09;;;;;;;7.83;1.70;;;;;;;18.29;100.00;102395.72;5069985;28;20301;-46
2022/07/06 04:50:35;;;;;;;4.45;1.98;;;;;;;18.40;100.00;102394.25;5077063;28;20286;-49
2022/07/06 04:53:03;;;;;;;3.40;1.70;;;;;;;18.25;100.00;102398.00;5074850;28;20037;-51
2022/07/06 04:55:30;;;;;;;6.60;2.37;;;;;;;18.16;100.00;102400.09;5077740;28;20292;-47
2022/07/06 04:57:56;;;;;;;3.70;1.70;;;;;;;18.43;100.00;102394.66;5081688;28;20274;-48
2022/07/06 05:00:22;;;;;;;5.68;1.63;;;;;;;18.24;100.00;102404.47;5074121;28;20051;-50
2022/07/06 05:02:49;;;;;;;5.93;1.93;;;;;;;18.58;100.00;102399.88;5071704;28;20029;-47
2022/07/06 05:05:16;;;;;;;5.33;2.00;;;;;;;18.29;100.00;102399.25;5071454;28;20277;-46
2022/07/06 05:07:42;;;;;;;5.63;2.22;;;;;;;18.64;100.00;102400.88;5072113;28;20266;-49
2022/07/06 05:10:09;;;;;;;;;;;;;;;18.51;100.00;102406.34;5077369;28;20041;-49
2022/07/06 05:12:37;;;;;;;3.33;1.73;;;;;;;18.68;100.00;102407.53;5075860;28;19916;-49
2022/07/06 05:15:03;;;;;;;5.40;1.73;;;;;;;18.69;100.00;102411.94;5071863;28;20270;-51
2022/07/06 05:17:29;;;;;;;2.97;1.90;;;;;;;18.78;100.00;102412.50;5073056;28;20029;-46
2022/07/06 05:19:58;;;;;;;3.77;1.50;;;;;;;18.64;100.00;102411.72;5081324;28;20025;-50
2022/07/06 05:22:24;;;;;;;3.07;1.97;;;;;;;19.07;100.00;102410.41;5076936;28;20361;-52
2022/07/06 05:24:51;;;;;;;4.33;2.17;;;;;;;19.26;100.00;102422.19;5076288;28;20028;-49
2022/07/06 05:27:16;;;;;;;4.68;1.30;;;;;;;19.49;100.00;102415.41;5070991;28;20297;-49
2022/07/06 05:29:42;;;;;;;2.27;1.47;;;;;;;19.53;100.00;102422.06;5078216;28;20036;-49
2022/07/06 05:32:08;;;;;;;4.63;1.60;;;;;;;19.34;100.00;102416.50;5077095;28;20048;-46
2022/07/06 05:34:36;;;;;;;5.03;1.70;;;;;;;19.01;100.00;102413.94;5072704;28;20288;-47
2022/07/06 05:37:03;;;;;;;4.00;1.53;;;;;;;18.96;100.00;102416.44;5076605;28;20036;-47
2022/07/06 05:39:28;;;;;;;3.92;1.40;;;;;;;18.81;100.00;102422.13;5076799;28;20269;-53
2022/07/06 05:41:53;;;;;;;2.73;1.60;;;;;;;19.09;100.00;102416.44;5073592;28;20047;-50
2022/07/06 05:44:19;;;;;;;9.32;1.90;;;;;;;19.30;100.00;102419.91;5076698;28;20270;-51
2022/07/06 05:46:45;;;;;;;3.35;2.05;;;;;;;19.68;100.00;102418.22;5072316;28;20033;-51
2022/07/06 05:51:56;;;;;;;8.57;1.67;;;;;;;19.64;100.00;102425.97;5072991;28;20345;-49
2022/07/06 05:54:22;;;;;;;4.50;1.20;;;;;;;19.67;100.00;102427.44;5079102;28;20269;-52
2022/07/06 05:56:48;;;;;;;4.53;1.35;;;;;;;19.67;100.00;102425.53;5073199;28;20021;-51
2022/07/06 05:59:14;;;;;;;3.08;1.10;;;;;;;19.85;100.00;102424.81;5078377;28;20044;-53
2022/07/06 06:01:40;;;;;;;4.00;1.30;;;;;;;20.12;100.00;102424.63;5071945;28;20057;-47
2022/07/06 06:04:11;;;;;;;3.43;1.40;;;;;;;19.60;100.00;102427.47;5075164;28;20050;-48
2022/07/06 06:06:36;;;;;;;5.63;1.40;;;;;;;20.01;100.00;102433.47;5073590;28;20285;-48
2022/07/06 06:09:03;;;;;;;2.92;0.90;;;;;;;20.17;100.00;102434.81;5071244;28;20029;-50
2022/07/06 06:11:29;;;;;;;5.88;1.05;;;;;;;20.31;100.00;102432.84;5070606;28;20032;-51
2022/07/06 06:13:54;;;;;;;1.30;0.70;;;;;;;20.32;100.00;102437.22;5073712;28;20127;-51
2022/07/06 06:16:20;;;;;;;2.85;1.00;;;;;;;20.30;100.00;102431.19;5068607;28;20089;-51
2022/07/06 06:18:46;;;;;;;5.18;1.77;;;;;;;20.34;100.00;102429.69;5078145;28;20033;-50
2022/07/06 06:21:11;;;;;;;3.13;1.00;;;;;;;20.34;100.00;102435.13;5075539;28;20082;-49
2022/07/06 06:23:37;;;;;;;2.83;1.05;;;;;;;20.35;100.00;102434.06;5074891;28;20032;-48
2022/07/06 06:26:03;;;;;;;2.55;1.20;;;;;;;20.24;100.00;102432.91;5074025;28;20071;-49
2022/07/06 06:28:28;;;;;;;2.17;0.90;;;;;;;20.19;100.00;102430.84;5074248;28;20074;-47
2022/07/06 06:30:54;;;;;;;2.45;0.68;;;;;;;20.22;100.00;102437.72;5081345;28;20039;-47
2022/07/06 06:33:20;;;;;;;3.92;0.80;;;;;;;20.51;100.00;102448.09;5076954;28;20029;-47
2022/07/06 06:35:49;;;;;;;4.00;1.10;;;;;;;20.70;100.00;102440.84;5075697;28;20041;-46
2022/07/06 06:38:15;;;;;;;3.23;1.10;;;;;;;20.60;100.00;102442.16;5072908;28;20036;-48
2022/07/06 06:40:41;;;;;;;4.03;0.98;;;;;;;20.62;100.00;102441.97;5079576;28;20037;-52
2022/07/06 06:43:06;;;;;;;3.05;0.70;;;;;;;20.47;100.00;102442.31;5077085;28;20036;-46
2022/07/06 06:45:36;;;;;;;2.73;0.90;;;;;;;20.24;100.00;102448.34;5075773;28;20036;-47
2022/07/06 06:48:02;;;;;;;3.22;0.80;;;;;;;20.48;100.00;102444.78;5074668;28;20467;-48
2022/07/06 06:50:27;;;;;;;1.67;0.45;;;;;;;20.26;100.00;102446.25;5081110;28;20036;-49
2022/07/06 06:52:53;;;;;;;3.75;0.85;;;;;;;20.13;100.00;102447.19;5081331;28;20036;-51
2022/07/06 06:55:19;;;;;;;3.00;1.13;;;;;;;20.03;100.00;102447.66;5077817;28;20037;-50
2022/07/06 06:57:44;;;;;;;3.33;0.90;;;;;;;20.06;100.00;102448.06;5074737;28;20044;-49
2022/07/06 07:00:10;;;;;;;5.80;1.27;;;;;;;19.90;100.00;102454.84;5079641;28;20044;-47
2022/07/06 07:02:36;;;;;;;4.55;0.75;;;;;;;20.30;100.00;102450.19;5071256;28;20094;-46
2022/07/06 07:05:03;;;;;;;9.05;1.35;;;;;;;20.31;100.00;102458.09;5073810;28;20041;-52
2022/07/06 07:07:29;;;;;;;4.83;1.47;;;;;;;20.52;100.00;102456.06;5072726;28;20040;-49
2022/07/06 07:09:54;;;;;;;1.65;0.60;;;;;;;20.57;100.00;102453.50;5072433;28;20278;-47
2022/07/06 07:12:20;;;;;;;10.38;1.13;;;;;;;20.67;100.00;102458.41;5076840;28;20059;-51
2022/07/06 07:14:45;;;;;;;2.58;0.80;;;;;;;20.90;100.00;102451.53;5072209;28;20072;-51
2022/07/06 07:17:11;;;;;;;4.90;1.33;;;;;;;21.08;100.00;102458.03;5074182;28;20075;-48
2022/07/06 07:19:37;;;;;;;;;;;;;;;21.10;100.00;102453.19;5076115;28;20033;-50
2022/07/06 07:22:03;;;;;;;3.47;0.97;;;;;;;21.37;100.00;102461.88;5076190;28;19967;-49
2022/07/06 07:24:28;;;;;;;2.03;1.00;;;;;;;21.05;100.00;102460.16;5076901;28;20056;-50
2022/07/06 07:26:54;;;;;;;4.10;0.77;;;;;;;21.05;100.00;102452.00;5078886;28;20052;-52
2022/07/06 07:29:19;;;;;;;19.23;1.40;;;;;;;21.10;100.00;102456.72;5077425;28;20079;-49
2022/07/06 07:31:45;;;;;;;7.13;1.40;;;;;;;21.06;100.00;102460.97;5077496;28;20037;-49
2022/07/06 07:34:11;;;;;;;5.72;1.00;;;;;;;21.06;100.00;102464.53;5076153;28;20044;-47
2022/07/06 07:36:36;;;;;;;9.60;1.20;;;;;;;21.20;100.00;102467.06;5077505;28;20061;-51
2022/07/06 07:39:02;;;;;;;;;;;;;;;21.29;100.00;102465.72;5072864;28;20033;-53
2022/07/06 07:41:28;;;;;;;5.53;1.00;;;;;;;21.23;100.00;102466.66;5076861;28;19952;-49
2022/07/06 07:43:53;;;;;;;4.38;0.88;;;;;;;21.26;100.00;102468.91;5074135;28;20033;-53
2022/07/06 07:46:19;;;;;;;5.97;1.75;;;;;;;21.49;100.00;102467.38;5075179;28;20075;-48
2022/07/06 07:48:44;;;;;;;8.85;1.20;;;;;;;21.39;100.00;102465.19;5073896;28;20049;-51
2022/07/06 07:51:11;;;;;;;2.20;0.85;;;;;;;21.41;100.00;102459.50;5069642;28;20052;-49
2022/07/06 07:53:36;;;;;;;5.57;0.90;;;;;;;21.58;100.00;102465.97;5075637;28;20029;-52
2022/07/06 07:56:02;;;;;;;8.13;1.00;;;;;;;21.83;100.00;102469.66;5075370;28;20041;-49
2022/07/06 07:58:27;;;;;;;3.75;1.30;;;;;;;21.77;100.00;102474.94;5081675;28;20115;-51
2022/07/06 08:00:53;;;;;;;9.45;3.63;;;;;;;21.75;100.00;102468.91;5072576;28;20033;-52
2022/07/06 08:03:18;;;;;;;11.68;4.30;;;;;;;21.94;100.00;102465.31;5081428;28;20071;-50
2022/07/06 08:05:44;;;;;;;8.53;2.47;;;;;;;22.09;100.00;102462.94;5089329;28;20032;-53
2022/07/06 08:08:09;;;;;;;5.73;2.20;;;;;;;22.19;100.00;102460.50;5078201;28;20301;-53
2022/07/06 08:10:35;;;;;;;13.35;6.88;;;;;;;22.47;100.00;102466.34;5080052;28;20274;-55
2022/07/06 08:13:00;;;;;;;16.67;8.38;;;;;;;22.37;100.00;102466.91;5077861;28;20108;-54
2022/07/06 08:15:26;;;;;;;8.07;2.80;;;;;;;22.16;100.00;102465.56;5076841;28;20041;-49
2022/07/06 08:17:51;;;;;;;14.80;6.30;;;;;;;21.74;100.00;102467.25;5077743;28;20040;-48
2022/07/06 08:20:16;;;;;;;7.53;3.50;;;;;;;22.43;100.00;102465.97;5081396;28;20033;-50
2022/07/06 08:22:43;;;;;;;5.90;0.93;;;;;;;22.42;100.00;102461.59;5082618;28;20344;-52
2022/07/06 08:25:09;;;;;;;;;;;;;;;22.62;100.00;102446.81;5076923;28;20044;-48
2022/07/06 08:27:34;;;;;;;8.03;3.17;;;;;;;22.44;100.00;102462.19;5075481;28;19912;-48
2022/07/06 08:30:02;;;;;;;35.72;19.35;;;;;;;22.34;100.00;102464.66;5076021;28;20201;-53
2022/07/06 08:32:27;;;;;;;32.63;16.23;;;;;;;22.61;97.72;102462.31;5078194;28;20052;-51
2022/07/06 08:34:53;;;;;;;29.98;13.63;;;;;;;22.58;98.08;102451.06;5054478;28;20033;-52
2022/07/06 08:37:19;;;;;;;20.30;8.15;;;;;;;22.91;96.03;102452.34;5075316;28;20037;-50
2022/07/06 08:39:44;;;;;;;12.63;4.95;;;;;;;23.23;92.33;102449.16;5079328;28;21639;-56
2022/07/06 08:42:10;;;;;;;12.60;6.72;;;;;;;23.55;91.88;102446.00;5085008;28;20075;-51
2022/07/06 08:44:36;;;;;;;;;;;;;;;23.82;83.87;102444.53;5078128;28;20037;-52
2022/07/06 08:47:05;;;;;;;9.27;2.37;;;;;;;23.74;82.82;102451.25;5079672;28;19963;-50
2022/07/06 08:49:33;;;;;;;3.07;0.60;;;;;;;23.25;82.97;102447.06;5078047;28;20045;-52
2022/07/06 08:51:59;;;;;;;10.63;6.13;;;;;;;23.44;80.36;102446.88;5074539;28;20393;-47
2022/07/06 08:54:27;;;;;;;16.63;7.23;;;;;;;23.45;82.79;102445.78;5077301;28;20060;-49
2022/07/06 08:56:54;;;;;;;3.50;1.70;;;;;;;24.02;76.70;102444.94;5075880;28;20112;-50
2022/07/06 08:59:19;;;;;;;;;;;;;;;24.01;75.38;102448.75;5075005;28;20041;-49
2022/07/06 09:01:46;;;;;;;5.60;1.63;;;;;;;24.16;74.69;102445.44;5075439;28;19916;-47
2022/07/06 09:04:13;;;;;;;6.17;1.20;;;;;;;24.06;73.30;102448.81;5084015;28;20047;-52
2022/07/06 09:06:42;;;;;;;12.53;6.43;;;;;;;24.72;75.57;102441.88;5079335;28;20092;-50
2022/07/06 09:09:09;;;;;;;7.17;2.70;;;;;;;24.88;72.91;102448.41;5073216;28;20066;-52
2022/07/06 09:11:35;;;;;;;17.33;8.33;;;;;;;24.34;78.13;102449.81;5079878;28;20059;-49
2022/07/06 09:14:01;;;;;;;4.40;2.03;;;;;;;24.77;71.79;102447.44;5076911;28;20038;-53
2022/07/06 09:16:28;;;;;;;5.20;0.90;;;;;;;24.89;68.11;102451.97;5074974;28;20037;-51
2022/07/06 09:18:54;;;;;;;3.80;0.87;;;;;;;25.00;67.32;102453.75;5077454;28;20025;-50
2022/07/06 09:21:31;;;;;;;4.77;0.73;;;;;;;25.11;63.34;102451.13;5077749;28;20043;-49
2022/07/06 09:23:59;;;;;;;2.63;1.05;;;;;;;25.59;65.27;102457.72;5077659;28;20059;-50
2022/07/06 09:26:25;;;;;;;5.70;0.87;;;;;;;26.09;61.24;102463.13;5071986;28;20060;-53
2022/07/06 09:28:50;;;;;;;2.47;0.80;;;;;;;26.25;60.36;102466.84;5077193;28;20039;-52
2022/07/06 09:31:16;;;;;;;;;;;;;;;26.47;57.26;102463.16;5083079;28;20063;-48
2022/07/06 09:33:59;;;;;;;6.17;1.27;;;;;;;25.63;59.66;102458.03;5070597;28;19912;-53
2022/07/06 09:36:40;;;;;;;1.80;0.80;;;;;;;26.01;59.95;102453.47;5071080;28;20038;-50
2022/07/06 09:39:21;;;;;;;2.43;1.70;;;;;;;26.44;58.16;102461.75;5071022;28;20048;-52
2022/07/06 09:41:47;;;;;;;3.33;1.70;;;;;;;26.55;57.28;102465.38;5068689;28;20036;-52
2022/07/06 09:44:19;;;;;;;2.83;1.00;;;;;;;27.17;57.00;102459.38;5071162;28;20033;-53
2022/07/06 09:46:46;;;;;;;2.63;0.60;;;;;;;26.88;55.07;102468.06;5076196;28;20025;-51
2022/07/06 09:49:12;;;;;;;1.70;0.63;;;;;;;27.26;53.78;102468.75;5067899;28;20040;-49
2022/07/06 09:51:37;;;;;;;;;;;;;;;26.56;53.35;102466.22;5077450;28;20116;-52
2022/07/06 09:54:10;;;;;;;1.93;0.70;;;;;;;26.73;51.83;102475.06;5067171;28;19913;-50
2022/07/06 09:56:37;;;;;;;5.60;0.70;;;;;;;27.93;49.70;102472.75;5068925;28;20036;-50
2022/07/06 09:59:14;;;;;;;2.13;0.67;;;;;;;28.73;46.12;102483.13;5074010;28;20033;-49
2022/07/06 10:01:41;;;;;;;3.15;0.73;;;;;;;29.31;42.80;102479.06;5071777;28;20037;-49
2022/07/06 10:04:08;;;;;;;3.22;0.57;;;;;;;29.59;43.13;102479.47;5069535;28;20043;-53
2022/07/06 10:06:34;;;;;;;1.38;0.47;;;;;;;28.90;43.60;102484.75;5072638;28;20054;-50
2022/07/06 10:09:00;;;;;;;2.50;0.85;;;;;;;28.23;46.07;102474.69;5081891;28;20048;-51
2022/07/06 10:11:28;;;;;;;6.00;1.80;;;;;;;28.12;46.72;102476.56;5069344;28;20044;-50
2022/07/06 10:13:56;;;;;;;4.55;1.55;;;;;;;27.73;47.54;102468.88;5077994;28;20041;-51
2022/07/06 10:16:25;;;;;;;4.50;1.70;;;;;;;27.40;49.87;102476.47;5072554;28;20093;-52
2022/07/06 10:18:55;;;;;;;4.07;0.83;;;;;;;27.75;46.63;102480.44;5076390;28;20013;-49
2022/07/06 10:21:24;;;;;;;4.40;1.88;;;;;;;28.65;44.54;102489.19;5072686;28;20053;-49
2022/07/06 10:23:51;;;;;;;4.53;0.70;;;;;;;29.07;42.10;102489.91;5076821;28;20093;-51
2022/07/06 10:26:18;;;;;;;3.28;1.17;;;;;;;28.92;40.91;102482.53;5079157;28;20037;-50
2022/07/06 10:28:46;;;;;;;3.03;0.80;;;;;;;28.50;41.60;102479.06;5072576;28;20059;-49
2022/07/06 10:31:17;;;;;;;3.88;1.05;;;;;;;27.63;47.09;102465.00;5077332;28;20059;-51
2022/07/06 10:33:44;;;;;;;3.72;1.05;;;;;;;27.81;46.74;102473.03;5070158;28;20047;-51
2022/07/06 10:36:12;;;;;;;4.03;0.80;;;;;;;27.80;46.50;102476.88;5074499;28;20104;-51
2022/07/06 10:38:37;;;;;;;5.70;0.63;;;;;;;28.11;45.18;102465.88;5079169;28;20028;-50
2022/07/06 10:41:06;;;;;;;5.30;1.35;;;;;;;29.31;43.84;102462.53;5081017;28;20592;-50
2022/07/06 10:43:36;;;;;;;3.00;0.63;;;;;;;30.03;41.21;102466.72;5072628;28;20062;-54
2022/07/06 10:46:17;;;;;;;25.35;11.50;;;;;;;30.54;39.28;102469.28;5076680;28;20040;-48
2022/07/06 10:48:47;;;;;;;8.02;3.85;;;;;;;30.09;38.87;102472.19;5077054;28;20037;-52
2022/07/06 10:51:33;;;;;;;2.13;0.80;;;;;;;31.35;38.03;102474.09;5076429;28;20040;-49
2022/07/06 10:54:04;;;;;;;14.68;6.90;;;;;;;32.59;35.70;102476.75;5076415;28;20033;-49
2022/07/06 10:56:37;;;;;;;22.33;10.32;;;;;;;31.87;37.61;102473.31;5075524;28;20029;-50
2022/07/06 10:59:14;;;;;;;12.93;7.30;;;;;;;31.52;39.26;102472.75;5072269;28;20031;-48
2022/07/06 11:01:40;;;;;;;5.75;1.90;;;;;;;31.20;36.48;102483.44;5075774;28;20058;-49
2022/07/06 11:04:08;;;;;;;6.45;3.00;;;;;;;30.65;39.57;102470.81;5069220;28;20048;-51
2022/07/06 11:06:37;;;;;;;15.80;7.55;;;;;;;31.30;39.78;102475.00;5071417;28;20052;-53
2022/07/06 11:09:10;;;;;;;22.27;9.88;;;;;;;32.19;38.10;102479.97;5070039;28;20140;-54
2022/07/06 11:11:35;;;;;;;4.03;1.45;;;;;;;32.42;36.38;102475.41;5067104;28;20060;-50
2022/07/06 11:14:06;;;;;;;13.32;7.35;;;;;;;32.49;36.70;102472.25;5069499;28;20036;-52
2022/07/06 11:16:34;;;;;;;6.00;2.95;;;;;;;31.21;36.22;102474.03;5071740;28;20033;-51
2022/07/06 11:19:11;;;;;;;3.63;1.30;;;;;;;31.90;36.77;102461.66;5072127;28;20035;-53
2022/07/06 11:21:47;;;;;;;2.00;1.05;;;;;;;32.36;34.89;102467.50;5077066;28;20033;-53
2022/07/06 11:24:19;;;;;;;5.00;1.98;;;;;;;32.10;37.03;102454.97;5081681;28;20052;-49